Time;durP1;ratioP1;P1;durP2;ratioP2;P2;SDS_P1;SDS_P2;PMS_P1;PMS_P2;Temp;Humidity;BMP_temperature;BMP_pressure;BME280_temperature;BME280_humidity;BME280_pressure;Samples;Min_cycle;Max_cycle;Signal;HPM_P1;HPM_P2
2023/05/22 00:02:06;;;;;;;18.53;16.40;;;17.50;1.00;;;;;;4970286;28;20192;-75
2023/05/22 00:04:32;;;;;;;18.70;15.97;;;17.50;1.00;;;;;;4967485;28;20184;-76
2023/05/22 00:06:58;;;;;;;19.53;16.37;;;17.50;1.00;;;;;;4975562;28;20541;-76
2023/05/22 00:09:25;;;;;;;19.90;16.00;;;17.40;1.00;;;;;;4972442;28;20190;-76
2023/05/22 00:11:51;;;;;;;21.50;16.63;;;17.50;1.00;;;;;;4968841;28;20176;-76
2023/05/22 00:14:16;;;;;;;19.13;15.83;;;17.30;1.00;;;;;;4968073;28;20522;-75
2023/05/22 00:16:42;;;;;;;21.27;16.23;;;17.40;1.00;;;;;;4973234;28;20589;-75
2023/05/22 00:19:12;;;;;;;18.97;16.10;;;17.40;1.00;;;;;;4973787;28;20222;-76
2023/05/22 00:21:38;;;;;;;20.03;16.70;;;17.40;1.00;;;;;;4976348;28;20271;-75
2023/05/22 00:24:04;;;;;;;22.77;16.50;;;17.40;1.00;;;;;;4970919;28;20469;-75
2023/05/22 00:26:30;;;;;;;18.17;15.53;;;17.40;1.00;;;;;;4980132;28;20467;-75
2023/05/22 00:28:56;;;;;;;21.30;16.37;;;17.40;1.00;;;;;;4985174;28;20977;-76
2023/05/22 00:31:22;;;;;;;18.77;15.77;;;17.40;1.00;;;;;;4972539;28;20187;-75
2023/05/22 00:33:47;;;;;;;20.90;16.37;;;17.40;1.00;;;;;;4973080;28;20386;-76
2023/05/22 00:36:13;;;;;;;22.20;16.40;;;17.40;1.00;;;;;;4975784;28;20632;-75
2023/05/22 00:38:38;;;;;;;20.40;16.37;;;17.40;1.00;;;;;;4977462;28;20187;-76
2023/05/22 00:41:05;;;;;;;20.83;16.50;;;17.40;1.00;;;;;;4971407;28;20291;-76
2023/05/22 00:43:32;;;;;;;20.50;16.87;;;17.40;1.00;;;;;;4975378;28;20266;-76
2023/05/22 00:45:58;;;;;;;18.17;15.80;;;17.30;1.00;;;;;;4979698;28;20478;-76
2023/05/22 00:48:23;;;;;;;21.07;16.23;;;17.30;1.00;;;;;;4978162;28;20980;-76
2023/05/22 00:50:50;;;;;;;18.97;15.30;;;17.30;1.00;;;;;;4982547;28;20258;-77
2023/05/22 00:53:18;;;;;;;19.40;16.10;;;17.30;1.00;;;;;;4975513;28;20184;-76
2023/05/22 00:55:44;;;;;;;21.50;17.43;;;17.20;1.00;;;;;;4979955;28;20461;-76
2023/05/22 00:58:12;;;;;;;21.60;17.47;;;17.20;1.00;;;;;;4976704;28;20948;-77
2023/05/22 01:00:40;;;;;;;20.80;16.67;;;17.20;1.00;;;;;;4990174;28;20204;-76
2023/05/22 01:03:06;;;;;;;18.63;15.90;;;17.10;1.00;;;;;;4988366;28;20541;-76
2023/05/22 01:05:33;;;;;;;22.33;15.60;;;16.90;1.00;;;;;;4974615;28;20500;-77
2023/05/22 01:07:59;;;;;;;19.03;15.97;;;16.80;1.00;;;;;;4984149;28;20238;-76
2023/05/22 01:10:25;;;;;;;20.53;15.40;;;16.70;1.00;;;;;;4985794;28;20943;-76
2023/05/22 01:13:09;;;;;;;20.10;15.87;;;16.70;1.00;;;;;;4979931;28;20186;-76
2023/05/22 01:15:42;;;;;;;19.00;16.20;;;16.60;1.00;;;;;;4983876;28;20955;-76
2023/05/22 01:18:28;;;;;;;19.50;15.43;;;16.60;1.00;;;;;;4989056;28;20806;-76
2023/05/22 01:21:03;;;;;;;18.73;15.13;;;16.60;1.00;;;;;;4979175;28;20817;-77
2023/05/22 01:23:56;;;;;;;18.80;15.60;;;16.60;1.00;;;;;;4980798;28;20446;-76
2023/05/22 01:26:54;;;;;;;20.77;16.57;;;16.60;1.00;;;;;;4979985;28;21004;-76
2023/05/22 01:29:42;;;;;;;24.50;15.80;;;16.50;1.00;;;;;;4953311;28;20503;-76
2023/05/22 01:32:09;;;;;;;19.83;15.57;;;16.40;1.00;;;;;;4992061;28;20925;-76
2023/05/22 01:34:37;;;;;;;19.97;16.60;;;16.20;1.00;;;;;;4988530;28;20464;-76
2023/05/22 01:37:04;;;;;;;20.60;16.47;;;16.30;1.00;;;;;;4976605;28;20549;-76
2023/05/22 01:39:30;;;;;;;19.33;15.90;;;16.40;1.00;;;;;;4977952;28;20514;-76
2023/05/22 01:41:56;;;;;;;22.77;16.53;;;16.40;1.00;;;;;;4980820;28;20879;-76
2023/05/22 01:44:22;;;;;;;21.60;15.77;;;16.40;1.00;;;;;;4980694;28;20438;-76
2023/05/22 01:46:48;;;;;;;18.33;15.10;;;16.40;1.00;;;;;;4980604;28;20521;-76
2023/05/22 01:49:14;;;;;;;19.20;15.70;;;16.40;1.00;;;;;;4981735;28;20195;-76
2023/05/22 01:51:52;;;;;;;18.67;15.73;;;16.30;1.00;;;;;;4983791;28;20280;-76
2023/05/22 01:54:38;;;;;;;17.77;14.80;;;16.30;1.00;;;;;;4975983;28;20435;-76
2023/05/22 01:57:06;;;;;;;21.20;14.50;;;16.20;1.00;;;;;;4991913;28;20860;-76
2023/05/22 01:59:44;;;;;;;20.70;15.20;;;16.20;1.00;;;;;;4976064;28;20438;-76
2023/05/22 02:02:13;;;;;;;18.73;14.27;;;16.20;1.00;;;;;;4990399;28;20438;-76
2023/05/22 02:04:42;;;;;;;17.80;13.97;;;16.20;1.00;;;;;;4976584;28;20962;-76
2023/05/22 02:07:11;;;;;;;18.80;14.70;;;16.20;1.00;;;;;;4979658;28;20969;-76
2023/05/22 02:09:39;;;;;;;16.93;14.60;;;16.20;1.00;;;;;;4979864;28;20423;-76
2023/05/22 02:12:05;;;;;;;17.67;15.17;;;16.10;1.00;;;;;;4982723;28;20495;-76
2023/05/22 02:14:31;;;;;;;20.23;15.13;;;16.00;1.00;;;;;;4980809;28;20423;-76
2023/05/22 02:16:57;;;;;;;18.30;15.43;;;16.00;1.00;;;;;;4974382;28;20463;-76
2023/05/22 02:19:23;;;;;;;19.23;14.13;;;15.90;1.00;;;;;;4977508;28;20184;-76
2023/05/22 02:21:48;;;;;;;18.10;13.80;;;15.90;1.00;;;;;;4983112;28;20784;-77
2023/05/22 02:24:14;;;;;;;15.73;12.80;;;15.80;1.00;;;;;;4987882;28;20478;-74
2023/05/22 02:26:41;;;;;;;19.37;14.87;;;15.90;1.00;;;;;;4990375;28;20214;-76
2023/05/22 02:29:06;;;;;;;19.57;14.50;;;15.90;1.00;;;;;;4978159;28;20178;-75
2023/05/22 02:31:32;;;;;;;16.57;13.70;;;15.80;1.00;;;;;;4988194;28;20427;-76
2023/05/22 02:33:57;;;;;;;17.77;14.40;;;15.80;1.00;;;;;;4976892;28;20187;-76
2023/05/22 02:36:25;;;;;;;17.37;14.20;;;15.80;1.00;;;;;;4982495;28;20764;-76
2023/05/22 02:38:50;;;;;;;18.17;14.07;;;15.90;1.00;;;;;;4976899;28;20307;-76
2023/05/22 02:41:17;;;;;;;15.83;13.73;;;15.80;1.00;;;;;;4971396;28;20904;-76
2023/05/22 02:43:42;;;;;;;20.33;15.00;;;15.70;1.00;;;;;;4971184;28;20300;-76
2023/05/22 02:46:08;;;;;;;17.53;13.93;;;15.80;1.00;;;;;;4971423;28;20553;-76
2023/05/22 02:48:33;;;;;;;17.87;15.20;;;15.70;1.00;;;;;;4973407;28;20190;-76
2023/05/22 02:50:59;;;;;;;16.20;14.00;;;15.60;1.00;;;;;;4976748;28;20831;-77
2023/05/22 02:53:25;;;;;;;18.80;15.00;;;15.70;1.00;;;;;;4970480;28;20187;-76
2023/05/22 02:55:51;;;;;;;18.03;13.37;;;15.70;1.00;;;;;;4974425;28;20217;-76
2023/05/22 02:58:17;;;;;;;18.30;14.30;;;15.60;1.00;;;;;;4973096;28;20183;-76
2023/05/22 03:00:44;;;;;;;16.57;13.63;;;15.60;1.00;;;;;;4969263;28;20442;-76
2023/05/22 03:03:10;;;;;;;16.90;13.77;;;15.50;1.00;;;;;;4970975;28;20446;-76
2023/05/22 03:05:36;;;;;;;15.73;14.03;;;15.50;1.00;;;;;;4976921;28;20560;-76
2023/05/22 03:08:01;;;;;;;17.27;14.33;;;15.50;1.00;;;;;;4972933;28;20530;-76
2023/05/22 03:10:27;;;;;;;23.60;13.90;;;15.40;1.00;;;;;;4970624;28;20212;-76
2023/05/22 03:12:52;;;;;;;16.97;13.90;;;15.40;1.00;;;;;;4985143;28;20221;-76
2023/05/22 03:15:18;;;;;;;16.67;14.10;;;15.40;1.00;;;;;;4985129;28;20286;-76
2023/05/22 03:17:44;;;;;;;17.67;14.27;;;15.30;1.00;;;;;;4981868;28;20238;-76
2023/05/22 03:20:13;;;;;;;16.73;14.47;;;15.30;1.00;;;;;;4975225;28;20257;-76
2023/05/22 03:22:39;;;;;;;22.80;15.03;;;15.40;1.00;;;;;;4981792;28;20191;-76
2023/05/22 03:25:08;;;;;;;18.87;13.30;;;15.40;1.00;;;;;;4979520;28;20529;-76
2023/05/22 03:27:33;;;;;;;15.87;13.33;;;15.50;1.00;;;;;;4973306;28;20212;-75
2023/05/22 03:29:59;;;;;;;16.83;14.03;;;15.50;1.00;;;;;;4973463;28;20445;-76
2023/05/22 03:32:24;;;;;;;16.17;13.37;;;15.60;1.00;;;;;;4978118;28;20218;-76
2023/05/22 03:34:50;;;;;;;20.80;13.70;;;15.70;1.00;;;;;;4973750;28;20295;-76
2023/05/22 03:37:15;;;;;;;16.23;13.27;;;15.60;1.00;;;;;;4975309;28;20258;-76
2023/05/22 03:39:41;;;;;;;16.33;13.87;;;15.70;1.00;;;;;;4975640;28;20674;-76
2023/05/22 03:42:06;;;;;;;19.20;13.33;;;15.70;1.00;;;;;;4973023;28;20183;-76
2023/05/22 03:44:32;;;;;;;16.47;13.90;;;15.80;1.00;;;;;;4975935;28;20198;-76
2023/05/22 03:46:57;;;;;;;15.63;13.37;;;15.80;1.00;;;;;;4981506;28;20293;-76
2023/05/22 03:49:23;;;;;;;17.37;13.53;;;15.90;1.00;;;;;;4971945;28;20354;-76
2023/05/22 03:51:48;;;;;;;17.70;14.10;;;15.90;1.00;;;;;;4980467;28;20183;-76
2023/05/22 03:54:14;;;;;;;19.23;14.60;;;16.00;1.00;;;;;;4971352;28;20179;-76
2023/05/22 03:56:39;;;;;;;20.13;14.13;;;16.10;1.00;;;;;;4971647;28;20231;-76
2023/05/22 03:59:05;;;;;;;19.73;15.13;;;16.10;1.00;;;;;;4971981;28;20191;-75
2023/05/22 04:01:30;;;;;;;17.60;13.97;;;16.10;1.00;;;;;;4969518;28;20188;-76
2023/05/22 04:03:56;;;;;;;20.00;14.60;;;16.20;1.00;;;;;;4980485;28;20187;-76
2023/05/22 04:06:22;;;;;;;21.00;14.63;;;16.30;1.00;;;;;;4970979;28;20219;-75
2023/05/22 04:08:48;;;;;;;19.10;15.43;;;16.40;1.00;;;;;;4972313;28;20194;-76
2023/05/22 04:11:14;;;;;;;18.97;14.37;;;16.40;1.00;;;;;;4987265;28;20327;-76
2023/05/22 04:13:41;;;;;;;19.70;15.30;;;16.40;1.00;;;;;;4978352;28;20180;-76
2023/05/22 04:16:06;;;;;;;18.30;15.27;;;16.40;1.00;;;;;;4983070;28;20836;-76
2023/05/22 04:18:32;;;;;;;21.13;16.47;;;16.50;1.00;;;;;;4976975;28;20453;-76
2023/05/22 04:20:58;;;;;;;24.80;18.20;;;16.50;1.00;;;;;;4981615;28;20211;-75
2023/05/22 04:23:23;;;;;;;26.00;18.23;;;16.50;1.00;;;;;;4975307;28;20207;-76
2023/05/22 04:25:49;;;;;;;21.73;17.40;;;16.70;1.00;;;;;;4970852;28;20203;-76
2023/05/22 04:28:16;;;;;;;21.30;17.00;;;16.70;1.00;;;;;;4977120;28;20182;-76
2023/05/22 04:30:42;;;;;;;21.73;17.13;;;16.80;1.00;;;;;;4970644;28;20180;-76
2023/05/22 04:33:08;;;;;;;21.80;16.83;;;16.80;1.00;;;;;;4970878;28;21034;-76
2023/05/22 04:35:34;;;;;;;20.13;16.40;;;16.90;1.00;;;;;;4974392;28;20447;-76
2023/05/22 04:38:02;;;;;;;22.90;17.33;;;16.90;1.00;;;;;;4973316;28;20176;-76
2023/05/22 04:40:29;;;;;;;21.83;16.23;;;16.90;1.00;;;;;;4970014;28;20451;-76
2023/05/22 04:42:58;;;;;;;24.10;16.10;;;19.00;1.00;;;;;;4973805;28;20439;-76
2023/05/22 04:45:24;;;;;;;26.23;16.10;;;17.00;1.00;;;;;;4971966;28;20970;-76
2023/05/22 04:47:51;;;;;;;21.67;17.07;;;17.10;1.00;;;;;;4968124;28;20661;-76
2023/05/22 04:50:17;;;;;;;20.27;15.80;;;17.10;1.00;;;;;;4972790;28;20184;-75
2023/05/22 04:52:43;;;;;;;20.43;16.30;;;17.20;1.00;;;;;;4972082;28;20553;-75
2023/05/22 04:55:10;;;;;;;25.57;17.50;;;17.30;1.00;;;;;;4972771;28;20185;-77
2023/05/22 04:57:36;;;;;;;22.10;17.20;;;17.30;1.00;;;;;;4970639;28;20670;-76
2023/05/22 05:00:04;;;;;;;19.30;16.13;;;17.40;1.00;;;;;;4979532;28;20497;-76
2023/05/22 05:02:29;;;;;;;21.63;18.07;;;17.40;1.00;;;;;;4978077;28;20512;-77
2023/05/22 05:04:55;;;;;;;23.73;16.67;;;17.50;1.00;;;;;;4975542;28;20969;-76
2023/05/22 05:07:22;;;;;;;24.20;17.83;;;17.60;1.00;;;;;;4976894;28;20225;-76
2023/05/22 05:09:48;;;;;;;22.50;17.17;;;17.60;1.00;;;;;;4978742;28;20184;-75
2023/05/22 05:12:14;;;;;;;21.80;17.73;;;17.60;1.00;;;;;;4977125;28;21007;-76
2023/05/22 05:14:40;;;;;;;25.73;17.70;;;17.80;1.00;;;;;;4982459;28;20251;-76
2023/05/22 05:17:06;;;;;;;24.13;18.13;;;17.80;1.00;;;;;;4975920;28;20617;-76
2023/05/22 05:19:31;;;;;;;21.67;17.27;;;20.10;1.00;;;;;;4978009;28;20196;-76
2023/05/22 05:21:57;;;;;;;23.07;18.20;;;18.00;1.00;;;;;;4977414;28;20187;-76
2023/05/22 05:24:22;;;;;;;21.60;16.90;;;18.00;1.00;;;;;;4973069;28;20804;-76
2023/05/22 05:26:49;;;;;;;21.97;17.23;;;18.10;1.00;;;;;;4979438;28;20212;-77
2023/05/22 05:29:14;;;;;;;22.27;17.87;;;18.20;1.00;;;;;;4980812;28;20254;-77
2023/05/22 05:31:40;;;;;;;22.27;18.47;;;18.10;1.00;;;;;;4976544;28;20593;-77
2023/05/22 05:34:06;;;;;;;21.80;17.77;;;18.20;1.00;;;;;;4976038;28;20175;-76
2023/05/22 05:36:31;;;;;;;24.97;18.10;;;18.30;1.00;;;;;;4979430;28;20222;-77
2023/05/22 05:38:57;;;;;;;29.50;17.83;;;18.40;1.00;;;;;;4981830;28;20233;-77
2023/05/22 05:41:23;;;;;;;23.90;18.47;;;18.40;1.00;;;;;;4986652;28;20197;-77
2023/05/22 05:43:51;;;;;;;27.17;19.17;;;18.40;1.00;;;;;;4976932;28;20431;-76
2023/05/22 05:46:16;;;;;;;27.00;18.00;;;18.50;1.00;;;;;;4980849;28;20218;-77
2023/05/22 05:48:42;;;;;;;26.10;18.33;;;18.60;1.00;;;;;;4971369;28;20443;-77
2023/05/22 05:51:08;;;;;;;28.07;18.37;;;18.60;1.00;;;;;;4979631;28;20171;-77
2023/05/22 05:53:35;;;;;;;30.83;19.03;;;18.50;1.00;;;;;;4976593;28;21036;-77
2023/05/22 05:56:01;;;;;;;23.97;18.60;;;18.50;1.00;;;;;;4975870;28;20202;-77
2023/05/22 05:58:27;;;;;;;22.00;17.37;;;18.40;1.00;;;;;;4975043;28;20442;-76
2023/05/22 06:00:53;;;;;;;21.33;17.77;;;18.70;1.00;;;;;;4978673;28;20456;-76
2023/05/22 06:03:18;;;;;;;26.63;18.47;;;18.60;1.00;;;;;;4985201;28;20198;-76
2023/05/22 06:05:44;;;;;;;26.83;19.00;;;18.50;1.00;;;;;;4982306;28;20200;-76
2023/05/22 06:08:10;;;;;;;25.83;18.27;;;18.50;1.00;;;;;;4976055;28;20186;-76
2023/05/22 06:10:36;;;;;;;23.87;18.70;;;18.70;1.00;;;;;;4980868;28;20446;-76
2023/05/22 06:13:01;;;;;;;22.27;18.30;;;18.80;1.00;;;;;;4978457;28;20199;-76
2023/05/22 06:15:27;;;;;;;22.83;17.83;;;18.80;1.00;;;;;;4971983;28;20545;-75
2023/05/22 06:17:53;;;;;;;24.50;18.13;;;18.90;1.00;;;;;;4979157;28;20203;-75
2023/05/22 06:20:18;;;;;;;21.17;17.97;;;19.00;1.00;;;;;;4984979;28;20175;-76
2023/05/22 06:22:44;;;;;;;27.80;18.67;;;18.90;1.00;;;;;;4980309;28;20218;-76
2023/05/22 06:25:09;;;;;;;25.80;18.40;;;19.10;1.00;;;;;;4972288;28;20207;-77
2023/05/22 06:27:35;;;;;;;22.97;18.37;;;19.00;1.00;;;;;;4974579;28;20206;-76
2023/05/22 06:30:01;;;;;;;24.57;18.70;;;19.10;1.00;;;;;;4980254;28;20187;-76
2023/05/22 06:32:27;;;;;;;25.03;19.13;;;19.20;1.00;;;;;;4974618;28;20179;-76
2023/05/22 06:34:53;;;;;;;26.37;19.23;;;;;;;;;;4973448;28;20854;-77
2023/05/22 06:37:18;;;;;;;25.80;19.27;;;19.40;1.00;;;;;;4978562;28;20570;-77
2023/05/22 06:39:44;;;;;;;23.50;18.17;;;19.40;1.00;;;;;;4982208;28;20447;-76
2023/05/22 06:42:09;;;;;;;22.50;18.20;;;19.30;1.00;;;;;;4976405;28;20262;-77
2023/05/22 06:44:35;;;;;;;23.77;17.70;;;19.40;1.00;;;;;;4978166;28;20195;-77
2023/05/22 06:47:00;;;;;;;28.77;17.93;;;19.50;1.00;;;;;;4971241;28;20209;-76
2023/05/22 06:49:26;;;;;;;21.37;17.60;;;19.50;1.00;;;;;;4973495;28;20207;-76
2023/05/22 06:51:51;;;;;;;23.47;18.03;;;19.60;1.00;;;;;;4970393;28;20207;-76
2023/05/22 06:54:19;;;;;;;25.00;17.87;;;19.60;1.00;;;;;;4973474;28;20208;-76
2023/05/22 06:56:45;;;;;;;23.07;18.20;;;19.90;1.00;;;;;;4975753;28;20250;-76
2023/05/22 06:59:11;;;;;;;20.73;17.70;;;20.00;1.00;;;;;;4978762;28;20793;-76
2023/05/22 07:01:36;;;;;;;27.37;17.77;;;20.20;1.00;;;;;;4974286;28;20265;-76
2023/05/22 07:04:03;;;;;;;27.50;17.40;;;20.30;1.00;;;;;;4975542;28;20267;-77
2023/05/22 07:06:32;;;;;;;23.40;16.80;;;20.50;1.00;;;;;;4972593;28;20211;-77
2023/05/22 07:08:58;;;;;;;20.67;16.60;;;20.70;1.00;;;;;;4979392;28;20455;-76
2023/05/22 07:11:24;;;;;;;22.90;16.17;;;20.90;1.00;;;;;;4976030;28;20446;-76
2023/05/22 07:13:49;;;;;;;21.67;16.70;;;20.90;1.00;;;;;;4972109;28;20441;-76
2023/05/22 07:16:15;;;;;;;20.77;16.30;;;21.30;1.00;;;;;;4980285;28;20448;-75
2023/05/22 07:18:41;;;;;;;19.50;15.90;;;21.40;1.00;;;;;;4976213;28;20186;-73
2023/05/22 07:21:06;;;;;;;21.60;17.13;;;21.60;1.00;;;;;;4977722;28;20224;-74
2023/05/22 07:23:32;;;;;;;23.20;15.87;;;21.60;1.00;;;;;;4976498;28;20184;-75
2023/05/22 07:25:57;;;;;;;19.67;15.80;;;21.70;1.00;;;;;;4976067;28;20214;-76
2023/05/22 07:28:23;;;;;;;23.47;14.43;;;22.00;1.00;;;;;;4975702;28;20278;-76
2023/05/22 07:30:48;;;;;;;18.27;15.13;;;22.30;1.00;;;;;;4975241;28;20218;-76
2023/05/22 07:33:14;;;;;;;27.33;15.50;;;22.70;1.00;;;;;;4975821;28;20278;-75
2023/05/22 07:35:39;;;;;;;17.70;14.27;;;23.00;1.00;;;;;;4971884;28;20764;-74
2023/05/22 07:38:05;;;;;;;16.83;14.70;;;23.00;1.00;;;;;;4973627;28;20522;-75
2023/05/22 07:40:30;;;;;;;19.20;15.80;;;23.20;1.00;;;;;;4979794;28;20569;-73
2023/05/22 07:42:56;;;;;;;19.60;16.67;;;23.10;1.00;;;;;;4974592;28;20255;-72
2023/05/22 07:45:21;;;;;;;20.43;16.33;;;23.10;1.00;;;;;;4978554;28;20242;-76
2023/05/22 07:47:47;;;;;;;19.00;15.80;;;23.20;1.00;;;;;;4976887;28;20211;-76
2023/05/22 07:50:12;;;;;;;17.87;14.97;;;23.60;1.00;;;;;;4973880;28;20332;-76
2023/05/22 07:52:38;;;;;;;19.43;16.27;;;23.80;1.00;;;;;;4974413;28;20175;-72
2023/05/22 07:55:06;;;;;;;20.03;16.67;;;23.80;1.00;;;;;;4973376;28;20664;-73
2023/05/22 07:57:34;;;;;;;19.30;16.30;;;23.60;1.00;;;;;;4969928;28;20246;-73
2023/05/22 08:00:05;;;;;;;20.40;16.83;;;23.90;1.00;;;;;;4978913;28;20451;-73
2023/05/22 08:02:32;;;;;;;23.77;17.77;;;23.90;1.00;;;;;;4974914;28;20450;-73
2023/05/22 08:04:57;;;;;;;23.00;17.80;;;24.20;1.00;;;;;;4969391;28;21020;-73
2023/05/22 08:07:23;;;;;;;23.40;19.63;;;24.20;1.00;;;;;;4973387;28;20762;-73
2023/05/22 08:09:48;;;;;;;25.23;21.17;;;24.30;1.00;;;;;;4978546;28;20182;-75
2023/05/22 08:12:14;;;;;;;25.77;20.73;;;24.70;1.00;;;;;;4982669;28;20249;-73
2023/05/22 08:14:40;;;;;;;26.30;21.30;;;24.80;1.00;;;;;;4984049;28;20241;-73
2023/05/22 08:17:05;;;;;;;27.40;22.07;;;24.80;1.00;;;;;;4983630;28;20218;-73
2023/05/22 08:19:31;;;;;;;25.40;21.50;;;24.70;1.00;;;;;;4973808;28;20183;-73
2023/05/22 08:21:56;;;;;;;25.27;21.50;;;25.00;1.00;;;;;;4980497;28;20180;-73
2023/05/22 08:24:27;;;;;;;26.57;20.87;;;25.50;1.00;;;;;;4980229;28;20265;-72
2023/05/22 08:26:53;;;;;;;27.03;21.07;;;25.70;1.00;;;;;;4978005;28;20301;-72
2023/05/22 08:29:19;;;;;;;28.63;20.33;;;25.40;1.00;;;;;;4975804;28;20454;-76
2023/05/22 08:31:45;;;;;;;23.50;20.70;;;26.00;1.00;;;;;;4980669;28;20441;-72
2023/05/22 08:34:10;;;;;;;29.90;22.40;;;26.00;1.00;;;;;;4982676;28;20195;-73
2023/05/22 08:36:36;;;;;;;26.60;21.70;;;26.20;1.00;;;;;;4976414;28;20265;-75
2023/05/22 08:39:02;;;;;;;21.63;18.87;;;26.30;1.00;;;;;;4979422;28;20225;-75
2023/05/22 08:41:28;;;;;;;26.73;21.33;;;26.70;1.00;;;;;;4977227;28;20281;-74
2023/05/22 08:43:54;;;;;;;27.33;20.10;;;27.20;1.00;;;;;;4976186;28;20447;-75
2023/05/22 08:46:24;;;;;;;23.90;20.40;;;27.20;1.00;;;;;;4976066;28;20466;-73
2023/05/22 08:48:50;;;;;;;24.13;19.10;;;27.60;1.00;;;;;;4987248;28;20664;-74
2023/05/22 08:51:18;;;;;;;20.30;18.10;;;28.60;1.00;;;;;;4976841;28;20561;-74
2023/05/22 08:53:45;;;;;;;21.07;18.40;;;29.80;1.00;;;;;;4981851;28;20352;-74
2023/05/22 08:56:10;;;;;;;22.63;18.63;;;30.90;1.00;;;;;;4973719;28;20207;-77
2023/05/22 08:58:37;;;;;;;20.33;16.90;;;31.90;1.00;;;;;;4972563;28;20187;-77
2023/05/22 09:01:04;;;;;;;19.52;17.38;;;32.50;1.00;;;;;;4978261;28;20214;-77
2023/05/22 09:03:31;;;;;;;19.17;17.27;;;32.40;1.00;;;;;;4985359;28;20221;-74
2023/05/22 09:05:58;;;;;;;18.77;16.88;;;32.20;1.00;;;;;;4984474;28;20629;-74
2023/05/22 09:08:24;;;;;;;24.80;17.02;;;32.10;1.00;;;;;;4980694;28;20187;-75
2023/05/22 09:10:50;;;;;;;19.75;16.55;;;32.70;1.00;;;;;;4976791;28;20183;-74
2023/05/22 09:13:29;;;;;;;16.92;15.30;;;33.40;1.00;;;;;;4982591;28;20179;-76
2023/05/22 09:16:10;;;;;;;21.85;16.58;;;34.30;1.00;;;;;;4980256;28;20615;-76
2023/05/22 09:18:37;;;;;;;18.58;16.50;;;34.30;1.00;;;;;;4988688;28;20679;-75
2023/05/22 09:21:03;;;;;;;21.25;16.40;;;34.00;1.00;;;;;;4984300;28;20202;-75
2023/05/22 09:23:29;;;;;;;20.20;17.58;;;33.40;1.00;;;;;;4984463;28;20245;-75
2023/05/22 09:25:56;;;;;;;21.27;17.13;;;33.00;1.00;;;;;;4980973;28;20222;-76
2023/05/22 09:28:22;;;;;;;19.00;16.98;;;33.00;1.00;;;;;;4983535;28;21001;-77
2023/05/22 09:30:50;;;;;;;20.80;17.98;;;32.80;1.00;;;;;;4984425;28;20194;-75
2023/05/22 09:33:16;;;;;;;20.23;18.00;;;32.90;1.00;;;;;;4983000;28;20682;-76
2023/05/22 09:35:42;;;;;;;20.48;17.05;;;33.00;1.00;;;;;;4975918;28;20194;-75
2023/05/22 09:38:10;;;;;;;18.50;16.50;;;33.00;1.00;;;;;;4980199;28;20305;-73
2023/05/22 09:40:39;;;;;;;19.77;17.77;;;33.20;1.00;;;;;;4987501;28;20261;-74
2023/05/22 09:43:09;;;;;;;19.40;17.42;;;32.20;1.00;;;;;;4986326;28;20538;-76
2023/05/22 09:45:35;;;;;;;19.90;17.42;;;33.40;1.00;;;;;;4984401;28;20213;-74
2023/05/22 09:48:07;;;;;;;21.80;17.73;;;33.30;1.00;;;;;;4981533;28;20680;-77
2023/05/22 09:50:33;;;;;;;18.52;16.73;;;34.00;1.00;;;;;;4980454;28;20190;-80
2023/05/22 09:53:03;;;;;;;19.48;16.58;;;35.30;1.00;;;;;;4982265;28;20226;-77
2023/05/22 09:55:30;;;;;;;18.17;16.27;;;35.90;1.00;;;;;;4980567;28;20645;-74
2023/05/22 09:57:58;;;;;;;19.83;17.83;;;35.90;1.00;;;;;;4975065;28;20207;-76
2023/05/22 10:00:26;;;;;;;18.17;15.77;;;35.90;1.00;;;;;;4986176;28;20310;-76
2023/05/22 10:03:14;;;;;;;18.48;16.55;;;36.80;1.00;;;;;;4977126;28;20237;-76
2023/05/22 10:05:45;;;;;;;17.73;14.85;;;37.80;1.00;;;;;;4974944;28;20210;-75
2023/05/22 10:08:16;;;;;;;16.42;14.57;;;37.80;1.00;;;;;;4971971;28;20270;-77
2023/05/22 10:10:46;;;;;;;19.05;16.15;;;37.00;1.00;;;;;;4972765;28;20191;-77
2023/05/22 10:13:12;;;;;;;17.45;15.60;;;35.70;1.00;;;;;;4973962;28;20366;-78
2023/05/22 10:15:39;;;;;;;18.73;16.48;;;33.90;1.00;;;;;;4972600;28;20589;-77
2023/05/22 10:18:05;;;;;;;24.98;16.70;;;33.90;1.00;;;;;;4978697;28;20242;-75
2023/05/22 10:20:31;;;;;;;18.85;16.80;;;34.50;1.00;;;;;;4973975;28;20178;-74
2023/05/22 10:22:57;;;;;;;24.70;16.60;;;35.40;1.00;;;;;;4973899;28;20183;-75
2023/05/22 10:25:24;;;;;;;18.90;15.52;;;36.20;1.00;;;;;;4980925;28;20270;-75
2023/05/22 10:27:54;;;;;;;18.60;16.60;;;36.80;1.00;;;;;;4975263;28;20744;-75
2023/05/22 10:30:50;;;;;;;16.65;15.05;;;37.00;1.00;;;;;;4972254;28;20183;-76
2023/05/22 10:33:23;;;;;;;19.67;15.02;;;37.80;1.00;;;;;;4978067;28;20266;-75
2023/05/22 10:35:54;;;;;;;21.85;16.10;;;38.90;1.00;;;;;;4977048;28;20187;-80
2023/05/22 10:38:37;;;;;;;16.08;14.50;;;39.00;1.00;;;;;;4981731;28;20240;-76
2023/05/22 10:41:03;;;;;;;16.92;15.20;;;39.60;1.00;;;;;;4978836;28;20183;-76
2023/05/22 10:43:32;;;;;;;18.58;15.10;;;39.90;1.00;;;;;;4977081;28;20186;-76
2023/05/22 10:46:03;;;;;;;16.10;14.40;;;39.60;1.00;;;;;;4974421;28;20218;-76
2023/05/22 10:48:35;;;;;;;16.60;14.55;;;39.70;1.00;;;;;;4982061;28;20202;-78
2023/05/22 10:51:01;;;;;;;15.55;14.00;;;39.90;1.00;;;;;;4980247;28;20274;-76
2023/05/22 10:53:31;;;;;;;22.35;14.27;;;40.20;1.00;;;;;;4971971;28;20183;-79
2023/05/22 10:56:01;;;;;;;15.82;14.18;;;40.90;1.00;;;;;;4985196;28;20211;-75
2023/05/22 10:58:33;;;;;;;15.95;13.43;;;40.90;1.00;;;;;;4988303;28;20210;-76
2023/05/22 11:01:09;;;;;;;14.27;12.88;;;41.20;1.00;;;;;;4982656;28;20262;-76
2023/05/22 11:03:56;;;;;;;14.68;13.10;;;40.60;1.00;;;;;;4975737;28;20186;-75
2023/05/22 11:06:44;;;;;;;14.18;12.77;;;40.40;1.00;;;;;;4984357;28;20229;-78
2023/05/22 11:09:32;;;;;;;13.80;12.40;;;40.70;1.00;;;;;;4984793;28;20181;-76
2023/05/22 11:12:27;;;;;;;13.77;12.35;;;40.80;1.00;;;;;;4981767;28;20665;-75
2023/05/22 11:14:55;;;;;;;13.82;12.43;;;41.20;1.00;;;;;;4982238;28;20191;-77
2023/05/22 11:17:22;;;;;;;14.23;12.73;;;41.50;1.00;;;;;;4976171;28;20227;-76
2023/05/22 11:20:03;;;;;;;13.55;12.15;;;41.90;1.00;;;;;;4975427;28;20283;-80
2023/05/22 11:22:39;;;;;;;16.30;13.05;;;41.70;1.00;;;;;;4977730;28;20182;-75
2023/05/22 11:25:10;;;;;;;14.23;12.73;;;41.90;1.00;;;;;;4979595;28;20191;-79
2023/05/22 11:27:37;;;;;;;15.25;12.77;;;41.50;1.00;;;;;;4979037;28;20214;-76
2023/05/22 11:30:04;;;;;;;17.75;12.35;;;41.90;1.00;;;;;;4977638;28;20183;-79
2023/05/22 11:32:29;;;;;;;14.88;12.95;;;42.50;1.00;;;;;;4974339;28;20191;-78
2023/05/22 11:34:56;;;;;;;14.88;11.70;;;42.60;1.00;;;;;;4973962;28;20179;-78
2023/05/22 11:37:22;;;;;;;15.85;12.40;;;42.60;1.00;;;;;;4972072;28;20226;-76
2023/05/22 11:40:04;;;;;;;15.88;11.32;;;42.40;1.00;;;;;;4977711;28;20542;-77
2023/05/22 11:42:30;;;;;;;12.55;11.32;;;42.10;1.00;;;;;;4986324;28;20179;-77
2023/05/22 11:44:56;;;;;;;12.70;11.50;;;42.30;1.00;;;;;;4981930;28;20210;-77
2023/05/22 11:47:21;;;;;;;13.07;10.68;;;42.30;1.00;;;;;;4975224;28;20684;-79
2023/05/22 11:49:47;;;;;;;14.07;11.10;;;42.60;1.00;;;;;;4983509;28;20178;-76
2023/05/22 11:52:15;;;;;;;10.82;9.77;;;42.70;1.00;;;;;;4972873;28;20240;-76
2023/05/22 11:54:44;;;;;;;11.75;9.52;;;42.50;1.00;;;;;;4980280;28;20235;-76
2023/05/22 11:57:10;;;;;;;11.52;10.43;;;42.90;1.00;;;;;;4982191;28;20218;-77
2023/05/22 11:59:35;;;;;;;13.85;10.35;;;43.20;1.00;;;;;;4985406;28;20273;-75
2023/05/22 12:02:01;;;;;;;13.60;10.02;;;42.80;1.00;;;;;;4982961;28;20179;-76
2023/05/22 12:04:27;;;;;;;14.27;9.50;;;42.70;1.00;;;;;;4983262;28;20187;-75
2023/05/22 12:06:53;;;;;;;14.90;10.35;;;42.80;1.00;;;;;;4989421;28;20218;-78
2023/05/22 12:09:18;;;;;;;11.52;10.32;;;42.30;1.00;;;;;;4982780;28;20218;-77
2023/05/22 12:11:46;;;;;;;12.20;11.00;;;41.90;1.00;;;;;;4982495;28;20186;-76
2023/05/22 12:14:11;;;;;;;11.23;10.05;;;41.60;1.00;;;;;;4977129;28;20622;-76
2023/05/22 12:16:37;;;;;;;11.13;9.90;;;41.20;1.00;;;;;;4978930;28;20205;-75
2023/05/22 12:19:06;;;;;;;12.15;10.73;;;40.70;1.00;;;;;;4984590;28;20625;-77
2023/05/22 12:21:32;;;;;;;15.77;11.18;;;40.80;1.00;;;;;;4983183;28;20670;-76
2023/05/22 12:24:03;;;;;;;13.27;10.15;;;40.90;1.00;;;;;;4987771;28;20194;-77
2023/05/22 12:26:28;;;;;;;11.07;9.98;;;40.80;1.00;;;;;;4982552;28;20209;-76
2023/05/22 12:28:54;;;;;;;11.23;10.00;;;40.70;1.00;;;;;;4986908;28;20181;-76
2023/05/22 12:31:21;;;;;;;13.35;10.60;;;40.30;1.00;;;;;;4987933;28;20202;-75
2023/05/22 12:33:47;;;;;;;12.45;11.15;;;;;;;;;;4982072;28;20298;-76
2023/05/22 12:36:13;;;;;;;14.93;11.80;;;39.70;1.00;;;;;;4984344;28;20246;-76
2023/05/22 12:38:39;;;;;;;12.35;10.80;;;39.60;1.00;;;;;;4988962;28;20262;-74
2023/05/22 12:41:05;;;;;;;17.02;11.48;;;39.80;1.00;;;;;;4988013;28;20190;-74